createdAt,value
2022-11-01T00:01:57.841Z,9.82
2022-11-01T00:04:26.421Z,10.20
2022-11-01T00:06:54.927Z,10.18
2022-11-01T00:09:23.354Z,9.98
2022-11-01T00:11:51.886Z,9.85
2022-11-01T00:14:22.249Z,10.65
2022-11-01T00:16:51.168Z,10.43
2022-11-01T00:19:19.960Z,10.65
2022-11-01T00:21:48.388Z,9.85
2022-11-01T00:24:16.922Z,10.80
2022-11-01T00:26:45.370Z,9.48
2022-11-01T00:29:14.199Z,10.52
2022-11-01T00:31:43.982Z,10.18
2022-11-01T00:34:12.369Z,10.57
2022-11-01T00:36:40.770Z,10.70
2022-11-01T00:39:09.257Z,10.60
2022-11-01T00:41:37.700Z,9.93
2022-11-01T00:44:06.193Z,10.23
2022-11-01T00:46:34.890Z,10.60
2022-11-01T00:49:04.806Z,9.63
2022-11-01T00:51:33.250Z,9.98
2022-11-01T00:54:03.449Z,10.20
2022-11-01T00:56:31.870Z,10.65
2022-11-01T00:59:00.253Z,10.15
2022-11-01T01:01:28.771Z,10.93
2022-11-01T01:03:57.272Z,9.52
2022-11-01T01:06:27.103Z,9.90
2022-11-01T01:08:55.518Z,10.20
2022-11-01T01:11:23.890Z,10.43
2022-11-01T01:13:52.263Z,10.43
2022-11-01T01:16:20.655Z,9.95
2022-11-01T01:18:49.034Z,11.00
2022-11-01T01:21:17.627Z,10.00
2022-11-01T01:23:48.730Z,10.90
2022-11-01T01:26:17.167Z,10.38
2022-11-01T01:28:45.545Z,10.38
2022-11-01T01:31:14.433Z,11.50
2022-11-01T01:33:43.071Z,10.50
2022-11-01T01:36:11.634Z,11.38
2022-11-01T01:38:40.082Z,11.45
2022-11-01T01:41:27.405Z,10.32
2022-11-01T01:43:55.812Z,10.27
2022-11-01T01:46:24.291Z,10.85
2022-11-01T01:48:54.680Z,10.40
2022-11-01T01:51:26.838Z,11.00
2022-11-01T01:53:56.067Z,10.18
2022-11-01T01:56:29.200Z,10.60
2022-11-01T01:58:59.188Z,10.57
2022-11-01T02:01:28.397Z,10.50
2022-11-01T02:03:56.919Z,10.73
2022-11-01T02:06:26.504Z,10.45
2022-11-01T02:08:56.362Z,10.10
2022-11-01T02:11:26.155Z,10.95
2022-11-01T02:13:54.543Z,10.63
2022-11-01T02:16:33.307Z,9.30
2022-11-01T02:19:09.693Z,9.70
2022-11-01T02:21:52.328Z,9.70
2022-11-01T02:24:29.171Z,10.00
2022-11-01T02:27:08.847Z,9.60
2022-11-01T02:29:52.061Z,10.00
2022-11-01T02:32:24.713Z,8.93
2022-11-01T02:34:57.357Z,9.48
2022-11-01T02:37:28.795Z,9.90
2022-11-01T02:39:59.966Z,10.10
2022-11-01T02:42:30.757Z,10.38
2022-11-01T02:45:00.940Z,9.70
2022-11-01T02:47:33.223Z,10.23
2022-11-01T02:50:03.109Z,9.63
2022-11-01T02:52:33.524Z,9.65
2022-11-01T02:55:03.082Z,9.70
2022-11-01T02:57:34.608Z,9.85
2022-11-01T03:00:05.091Z,9.95
2022-11-01T03:02:41.985Z,8.95
2022-11-01T03:05:13.401Z,9.73
2022-11-01T03:07:44.292Z,9.25
2022-11-01T03:10:12.915Z,9.25
2022-11-01T03:12:45.622Z,9.32
2022-11-01T03:15:21.080Z,9.35
2022-11-01T03:17:53.690Z,9.43
2022-11-01T03:20:25.036Z,9.15
2022-11-01T03:22:56.512Z,9.10
2022-11-01T03:25:40.847Z,8.43
2022-11-01T03:28:13.191Z,9.07
2022-11-01T03:30:44.511Z,9.20
2022-11-01T03:33:15.273Z,10.18
2022-11-01T03:35:45.952Z,9.95
2022-11-01T03:38:17.666Z,8.98
2022-11-01T03:40:48.789Z,9.65
2022-11-01T03:43:18.528Z,9.60
2022-11-01T03:45:47.178Z,10.55
2022-11-01T03:48:17.238Z,10.13
2022-11-01T03:50:49.070Z,10.45
2022-11-01T03:53:17.584Z,10.23
2022-11-01T03:55:46.012Z,10.15
2022-11-01T03:58:14.671Z,9.63
2022-11-01T04:00:43.960Z,9.10
2022-11-01T04:03:13.182Z,9.10
2022-11-01T04:05:43.319Z,9.40
2022-11-01T04:08:12.780Z,8.48
2022-11-01T04:10:42.121Z,8.48
2022-11-01T04:13:10.468Z,9.15
2022-11-01T04:15:56.344Z,9.55
2022-11-01T04:18:43.793Z,10.05
2022-11-01T04:21:15.316Z,9.43
2022-11-01T04:23:43.756Z,9.75
2022-11-01T04:26:13.333Z,9.15
2022-11-01T04:28:41.812Z,9.68
2022-11-01T04:31:10.236Z,9.63
2022-11-01T04:33:38.764Z,9.05
2022-11-01T04:36:07.757Z,9.25
2022-11-01T04:38:37.531Z,8.98
2022-11-01T04:41:05.972Z,8.93
2022-11-01T04:43:34.558Z,8.85
2022-11-01T04:46:02.999Z,9.35
2022-11-01T04:48:32.403Z,8.95
2022-11-01T04:51:02.505Z,9.15
2022-11-01T04:53:30.879Z,9.23
2022-11-01T04:56:00.631Z,8.90
2022-11-01T04:58:29.031Z,9.80
2022-11-01T05:00:57.360Z,8.88
2022-11-01T05:03:25.866Z,8.60
2022-11-01T05:05:54.172Z,9.02
2022-11-01T05:08:22.510Z,8.50
2022-11-01T05:10:54.189Z,8.82
2022-11-01T05:13:24.025Z,8.52
2022-11-01T05:16:06.687Z,8.43
2022-11-01T05:18:41.078Z,8.60
2022-11-01T05:21:09.468Z,8.57
2022-11-01T05:23:37.873Z,8.77
2022-11-01T05:26:06.330Z,8.60
2022-11-01T05:28:36.147Z,8.13
2022-11-01T05:31:04.532Z,9.05
2022-11-01T05:33:33.018Z,8.88
2022-11-01T05:36:02.373Z,9.35
2022-11-01T05:38:44.652Z,8.50
2022-11-01T05:43:42.904Z,9.20
2022-11-01T05:46:11.289Z,8.65
2022-11-01T05:48:39.695Z,8.73
2022-11-01T05:51:08.282Z,9.18
2022-11-01T05:53:36.708Z,9.25
2022-11-01T05:56:05.505Z,9.63
2022-11-01T05:58:33.907Z,8.80
2022-11-01T06:01:04.739Z,8.98
2022-11-01T06:03:33.604Z,9.70
2022-11-01T06:06:02.025Z,10.00
2022-11-01T06:08:30.693Z,9.93
2022-11-01T06:11:03.535Z,9.48
2022-11-01T06:13:32.102Z,10.20
2022-11-01T06:16:00.681Z,9.23
2022-11-01T06:18:30.535Z,8.60
2022-11-01T06:20:59.314Z,9.15
2022-11-01T06:23:27.798Z,9.10
2022-11-01T06:26:01.164Z,9.25
2022-11-01T06:28:29.546Z,10.55
2022-11-01T06:30:57.990Z,10.60
2022-11-01T06:33:26.399Z,10.55
2022-11-01T06:35:56.124Z,11.70
2022-11-01T06:38:24.568Z,9.85
2022-11-01T06:40:53.290Z,9.95
2022-11-01T06:43:21.672Z,10.40
2022-11-01T06:45:50.083Z,10.70
2022-11-01T06:48:18.509Z,33.88
2022-11-01T06:50:46.869Z,26.42
2022-11-01T06:53:16.642Z,13.93
2022-11-01T06:55:45.055Z,12.65
2022-11-01T06:58:24.057Z,11.52
2022-11-01T07:00:52.638Z,12.48
2022-11-01T07:03:50.652Z,10.35
2022-11-01T09:07:15.318Z,5.97
2022-11-01T09:09:52.653Z,5.97
2022-11-01T10:10:10.228Z,3.15
2022-11-01T10:22:02.012Z,2.40
2022-11-01T10:25:12.517Z,2.75
2022-11-01T10:28:12.482Z,2.70
2022-11-01T10:46:40.617Z,2.22
2022-11-01T10:52:39.164Z,2.83
2022-11-01T10:55:35.409Z,2.10
2022-11-01T10:58:06.696Z,1.85
2022-11-01T11:01:29.303Z,2.45
2022-11-01T11:04:02.948Z,2.03
2022-11-01T11:09:50.463Z,2.20
2022-11-01T11:12:25.470Z,2.40
2022-11-01T11:14:59.654Z,1.80
2022-11-01T11:17:32.556Z,1.85
2022-11-01T11:20:07.196Z,2.00
2022-11-01T11:22:41.198Z,1.85
2022-11-01T11:25:17.991Z,1.73
2022-11-01T11:27:48.791Z,2.00
2022-11-01T11:30:31.335Z,2.08
2022-11-01T11:35:48.326Z,1.98
2022-11-01T11:38:31.300Z,2.35
2022-11-01T11:41:00.024Z,1.80
2022-11-01T11:43:36.505Z,2.30
2022-11-01T11:46:13.863Z,2.45
2022-11-01T11:48:57.001Z,2.20
2022-11-01T11:54:41.352Z,2.40
2022-11-01T11:57:20.733Z,2.00
2022-11-01T12:00:02.979Z,1.95
2022-11-01T12:02:35.856Z,1.95
2022-11-01T12:05:09.689Z,2.20
2022-11-01T12:10:33.254Z,2.25
2022-11-01T12:13:04.720Z,2.40
2022-11-01T12:15:41.247Z,2.00
2022-11-01T12:18:16.020Z,1.83
2022-11-01T12:20:55.262Z,2.00
2022-11-01T12:23:37.905Z,1.70
2022-11-01T12:26:14.094Z,1.20
2022-11-01T12:28:53.359Z,1.30
2022-11-01T12:31:25.470Z,1.25
2022-11-01T12:34:14.989Z,1.55
2022-11-01T12:37:04.523Z,1.48
2022-11-01T12:39:47.495Z,1.17
2022-11-01T12:42:22.837Z,1.33
2022-11-01T12:44:57.889Z,1.38
2022-11-01T12:47:37.492Z,1.27
2022-11-01T12:50:08.208Z,1.20
2022-11-01T12:52:42.661Z,1.10
2022-11-01T12:55:22.827Z,1.00
2022-11-01T12:58:01.305Z,1.50
2022-11-01T13:00:35.353Z,1.05
2022-11-01T13:03:21.401Z,1.25
2022-11-01T13:06:07.585Z,1.25
2022-11-01T13:08:43.620Z,1.25
2022-11-01T13:11:18.518Z,1.33
2022-11-01T13:13:50.349Z,1.10
2022-11-01T13:16:29.873Z,1.10
2022-11-01T13:19:02.014Z,1.13
2022-11-01T13:21:35.935Z,1.13
2022-11-01T13:24:09.545Z,1.27
2022-11-01T13:29:21.439Z,1.00
2022-11-01T13:31:57.412Z,1.45
2022-11-01T13:34:33.116Z,1.30
2022-11-01T13:37:07.378Z,1.00
2022-11-01T13:39:40.287Z,1.55
2022-11-01T13:42:11.395Z,1.40
2022-11-01T13:44:45.826Z,1.00
2022-11-01T13:47:36.520Z,1.38
2022-11-01T13:50:27.260Z,1.00
2022-11-01T13:52:57.735Z,0.70
2022-11-01T13:55:33.309Z,1.42
2022-11-01T13:58:13.189Z,1.30
2022-11-01T14:00:52.316Z,1.08
2022-11-01T14:03:34.848Z,1.38
2022-11-01T14:06:24.247Z,1.20
2022-11-01T14:08:58.841Z,1.10
2022-11-01T14:11:50.374Z,1.30
2022-11-01T14:14:40.223Z,0.95
2022-11-01T14:17:28.748Z,1.20
2022-11-01T14:20:14.488Z,1.15
2022-11-01T14:22:45.745Z,1.23
2022-11-01T14:25:29.299Z,1.00
2022-11-01T14:28:22.207Z,0.95
2022-11-01T14:30:53.591Z,1.20
2022-11-01T14:33:23.105Z,1.20
2022-11-01T14:35:55.958Z,1.30
2022-11-01T14:41:22.205Z,1.30
2022-11-01T14:43:52.547Z,1.50
2022-11-01T14:46:22.865Z,1.23
2022-11-01T14:48:53.161Z,1.40
2022-11-01T14:51:23.412Z,1.40
2022-11-01T14:53:59.520Z,1.13
2022-11-01T14:56:41.067Z,1.35
2022-11-01T14:59:13.713Z,1.40
2022-11-01T15:01:47.895Z,1.40
2022-11-01T15:04:21.288Z,1.35
2022-11-01T15:06:50.192Z,1.40
2022-11-01T15:09:22.371Z,1.58
2022-11-01T15:11:51.420Z,1.48
2022-11-01T15:14:22.696Z,1.58
2022-11-01T15:16:51.395Z,3.22
2022-11-01T15:19:27.901Z,2.30
2022-11-01T15:22:01.171Z,2.65
2022-11-01T15:24:33.876Z,4.00
2022-11-01T15:27:06.464Z,2.73
2022-11-01T15:29:35.539Z,2.55
2022-11-01T15:32:04.195Z,2.25
2022-11-01T15:34:34.324Z,2.25
2022-11-01T15:37:20.744Z,2.40
2022-11-01T15:39:50.758Z,2.75
2022-11-01T15:42:23.666Z,2.38
2022-11-01T15:44:52.399Z,1.70
2022-11-01T15:47:23.268Z,2.53
2022-11-01T15:49:54.029Z,2.30
2022-11-01T15:52:24.177Z,2.45
2022-11-01T15:54:56.502Z,2.67
2022-11-01T15:57:27.195Z,3.22
2022-11-01T16:00:00.381Z,3.53
2022-11-01T16:02:32.078Z,3.63
2022-11-01T16:05:01.033Z,1.80
2022-11-01T16:07:32.010Z,2.40
2022-11-01T16:10:04.958Z,2.22
2022-11-01T16:12:34.976Z,2.78
2022-11-01T16:15:06.389Z,2.75
2022-11-01T16:17:35.889Z,2.92
2022-11-01T16:20:06.123Z,4.05
2022-11-01T16:22:36.645Z,3.45
2022-11-01T16:25:19.837Z,3.15
2022-11-01T16:27:55.717Z,3.08
2022-11-01T16:30:34.248Z,1.83
2022-11-01T16:33:08.763Z,1.70
2022-11-01T16:35:39.341Z,1.55
2022-11-01T16:38:22.565Z,6.82
2022-11-01T16:40:55.851Z,4.72
2022-11-01T16:43:24.567Z,2.78
2022-11-01T16:45:53.204Z,4.05
2022-11-01T16:48:25.949Z,3.33
2022-11-01T16:50:54.959Z,3.88
2022-11-01T16:53:40.986Z,3.65
2022-11-01T16:56:35.611Z,3.15
2022-11-01T16:59:14.286Z,3.22
2022-11-01T17:01:43.108Z,2.50
2022-11-01T17:04:12.271Z,2.90
2022-11-01T17:06:51.785Z,2.95
2022-11-01T17:09:27.953Z,2.70
2022-11-01T17:12:00.930Z,3.65
2022-11-01T17:14:56.647Z,2.38
2022-11-01T17:23:00.001Z,1.63
2022-11-01T17:25:31.462Z,1.55
2022-11-01T17:28:05.527Z,1.48
2022-11-01T17:30:34.342Z,1.35
2022-11-01T17:33:37.937Z,2.67
2022-11-01T17:36:15.054Z,18.20
2022-11-01T17:38:45.620Z,16.08
2022-11-01T17:41:26.390Z,11.20
2022-11-01T17:43:56.585Z,7.13
2022-11-01T17:46:59.379Z,5.53
2022-11-01T17:49:24.370Z,5.15
2022-11-01T17:51:54.909Z,5.15
2022-11-01T17:57:00.643Z,6.28
2022-11-01T17:59:43.655Z,7.53
2022-11-01T18:02:13.923Z,6.43
2022-11-01T18:04:42.516Z,5.47
2022-11-01T18:07:17.201Z,6.00
2022-11-01T18:09:47.652Z,4.50
2022-11-01T18:12:23.703Z,3.70
2022-11-01T18:15:34.727Z,2.50
2022-11-01T18:18:12.903Z,2.40
2022-11-01T18:20:46.506Z,2.40
2022-11-01T18:23:41.545Z,2.30
2022-11-01T18:26:13.552Z,2.80
2022-11-01T18:28:56.864Z,4.00
2022-11-01T18:31:35.407Z,3.88
2022-11-01T18:34:15.887Z,3.55
2022-11-01T18:37:18.375Z,3.35
2022-11-01T18:46:18.719Z,6.32
2022-11-01T18:48:38.788Z,7.45
2022-11-01T18:51:20.586Z,8.55
2022-11-01T18:58:26.794Z,9.07
2022-11-01T19:03:25.958Z,11.43
2022-11-01T19:55:08.949Z,11.32
2022-11-01T19:58:02.604Z,9.80
2022-11-01T20:00:34.458Z,10.38
2022-11-01T20:03:17.248Z,10.00
2022-11-01T20:05:50.560Z,9.98
2022-11-01T20:08:22.962Z,9.88
2022-11-01T20:10:59.009Z,9.73
2022-11-01T20:13:49.476Z,7.18
2022-11-01T20:17:07.657Z,8.75
2022-11-01T20:19:34.790Z,9.30
2022-11-01T20:22:08.051Z,9.43
2022-11-01T20:24:36.596Z,8.05
2022-11-01T20:27:30.377Z,7.93
2022-11-01T20:30:07.797Z,7.57
2022-11-01T20:32:59.828Z,7.75
2022-11-01T20:35:30.617Z,8.55
2022-11-01T20:38:01.277Z,8.10
2022-11-01T20:40:37.725Z,9.05
2022-11-01T20:43:09.327Z,8.75
2022-11-01T20:45:56.944Z,8.02
2022-11-01T20:48:28.741Z,7.35
2022-11-01T20:50:59.219Z,7.38
2022-11-01T20:53:36.357Z,7.22
2022-11-01T20:56:12.853Z,7.80
2022-11-01T20:58:41.359Z,7.97
2022-11-01T21:01:22.205Z,7.38
2022-11-01T21:04:02.537Z,7.47
2022-11-01T21:06:56.383Z,7.50
2022-11-01T21:09:51.952Z,8.00
2022-11-01T21:13:01.827Z,9.65
2022-11-01T21:15:43.516Z,9.15
2022-11-01T21:18:30.299Z,7.55
2022-11-01T21:20:59.491Z,8.13
2022-11-01T21:23:29.237Z,8.57
2022-11-01T21:26:20.214Z,8.90
2022-11-01T21:28:49.631Z,7.60
2022-11-01T21:31:25.477Z,8.38
2022-11-01T21:34:02.393Z,8.80
2022-11-01T21:36:53.686Z,8.93
2022-11-01T21:45:33.029Z,7.55
2022-11-01T21:48:10.271Z,7.38
2022-11-01T21:50:47.421Z,7.18
2022-11-01T21:53:25.821Z,7.22
2022-11-01T21:56:04.484Z,6.70
2022-11-01T21:58:39.851Z,6.82
2022-11-01T22:01:08.916Z,6.35
2022-11-01T22:03:42.853Z,6.60
2022-11-01T22:08:55.324Z,7.03
2022-11-01T22:11:23.951Z,5.88
2022-11-01T22:13:55.116Z,6.28
2022-11-01T22:16:28.426Z,6.13
2022-11-01T22:18:59.391Z,6.80
2022-11-01T22:21:32.513Z,5.90
2022-11-01T22:24:03.619Z,6.47
2022-11-01T22:26:32.584Z,6.05
2022-11-01T22:29:07.284Z,6.18
2022-11-01T22:31:38.830Z,6.05
2022-11-01T22:34:07.613Z,6.20
2022-11-01T22:36:41.165Z,9.32
2022-11-01T22:39:18.377Z,12.50
2022-11-01T22:41:49.048Z,10.80
2022-11-01T22:44:23.821Z,10.27
2022-11-01T22:47:01.888Z,8.07
2022-11-01T22:49:34.695Z,8.88
2022-11-01T22:52:13.895Z,7.68
2022-11-01T22:54:46.201Z,6.80
2022-11-01T22:57:17.622Z,6.00
2022-11-01T22:59:47.614Z,5.20
2022-11-01T23:02:33.298Z,5.30
2022-11-01T23:05:25.222Z,4.93
2022-11-01T23:07:54.766Z,4.88
2022-11-01T23:10:29.359Z,5.30
2022-11-01T23:13:17.659Z,5.18
2022-11-01T23:15:49.897Z,4.70
2022-11-01T23:18:23.981Z,5.35
2022-11-01T23:20:56.472Z,6.78
2022-11-01T23:23:27.941Z,5.95
2022-11-01T23:25:58.364Z,5.85
2022-11-01T23:28:28.491Z,5.80
2022-11-01T23:30:58.687Z,4.43
2022-11-01T23:33:29.876Z,5.00
2022-11-01T23:36:00.681Z,5.32
2022-11-01T23:38:33.346Z,9.57
2022-11-01T23:41:04.094Z,8.38
2022-11-01T23:43:35.044Z,8.75
2022-11-01T23:46:03.818Z,5.07
2022-11-01T23:48:32.701Z,6.10
2022-11-01T23:51:02.848Z,5.82
2022-11-01T23:53:34.263Z,6.63
2022-11-01T23:56:07.825Z,5.07
2022-11-01T23:58:38.646Z,5.40
